createdAt,value
2022-08-17T00:00:55.267Z,6.9
2022-08-17T00:02:04.945Z,6.8
2022-08-17T00:03:13.539Z,6.8
2022-08-17T00:04:20.496Z,6.8
2022-08-17T00:05:29.025Z,7.8
2022-08-17T00:06:37.373Z,7.8
2022-08-17T00:07:45.777Z,7.8
2022-08-17T00:08:54.259Z,6.5
2022-08-17T00:10:02.575Z,6.5
2022-08-17T00:11:10.896Z,6.5
2022-08-17T00:12:42.413Z,6.2
2022-08-17T00:13:27.778Z,6.2
2022-08-17T00:14:36.237Z,6.2
2022-08-17T00:15:44.648Z,5.5
2022-08-17T00:16:56.283Z,5.5
2022-08-17T00:18:01.323Z,5.5
2022-08-17T00:19:09.859Z,8.3
2022-08-17T00:20:18.479Z,8.3
2022-08-17T00:21:26.522Z,8.3
2022-08-17T00:22:36.604Z,6.3
2022-08-17T00:23:44.240Z,6.3
2022-08-17T00:24:51.709Z,6.3
2022-08-17T00:26:00.238Z,6.1
2022-08-17T00:27:08.553Z,6.1
2022-08-17T00:28:16.902Z,6.1
2022-08-17T00:29:25.451Z,7.5
2022-08-17T00:30:48.415Z,7.5
2022-08-17T00:31:42.090Z,7.5
2022-08-17T00:33:10.588Z,6.1
2022-08-17T00:33:58.971Z,6.1
2022-08-17T00:35:07.293Z,6.1
2022-08-17T00:36:15.831Z,7.3
2022-08-17T00:37:24.159Z,7.3
2022-08-17T00:38:32.481Z,7.3
2022-08-17T00:39:41.074Z,8.3
2022-08-17T00:40:49.371Z,8.3
2022-08-17T00:41:57.702Z,8.3
2022-08-17T00:43:06.245Z,7.2
2022-08-17T00:44:14.586Z,7.2
2022-08-17T00:45:22.906Z,7.2
2022-08-17T00:46:31.439Z,6.5
2022-08-17T00:47:39.796Z,6.5
2022-08-17T00:48:48.132Z,6.5
2022-08-17T00:49:56.669Z,6.4
2022-08-17T00:51:04.998Z,6.4
2022-08-17T00:52:13.332Z,6.4
2022-08-17T00:53:21.868Z,6.6
2022-08-17T00:54:30.202Z,6.6
2022-08-17T00:55:38.534Z,6.6
2022-08-17T00:56:47.065Z,6.4
2022-08-17T00:57:55.815Z,6.4
2022-08-17T00:59:03.707Z,6.4
2022-08-17T01:00:12.262Z,8.6
2022-08-17T01:01:21.257Z,8.6
2022-08-17T01:02:28.934Z,8.6
2022-08-17T01:03:37.467Z,6.7
2022-08-17T01:04:45.808Z,6.7
2022-08-17T01:05:54.143Z,6.7
2022-08-17T01:07:02.687Z,7.4
2022-08-17T01:08:11.016Z,7.4
2022-08-17T01:09:19.355Z,7.4
2022-08-17T01:10:57.799Z,7.8
2022-08-17T01:11:36.274Z,7.8
2022-08-17T01:12:44.570Z,7.8
2022-08-17T01:13:53.123Z,7.7
2022-08-17T01:15:01.472Z,7.7
2022-08-17T01:16:09.815Z,7.7
2022-08-17T01:17:18.352Z,7.1
2022-08-17T01:18:26.685Z,7.1
2022-08-17T01:19:35.009Z,7.1
2022-08-17T01:20:47.989Z,7.3
2022-08-17T01:21:51.901Z,7.3
2022-08-17T01:23:00.224Z,7.3
2022-08-17T01:24:08.764Z,6.8
2022-08-17T01:25:17.099Z,6.8
2022-08-17T01:26:25.428Z,6.8
2022-08-17T01:27:33.974Z,7.7
2022-08-17T01:28:52.859Z,7.7
2022-08-17T01:29:50.647Z,7.7
2022-08-17T01:30:59.553Z,8.3
2022-08-17T01:32:07.525Z,8.3
2022-08-17T01:33:15.873Z,8.3
2022-08-17T01:34:24.432Z,7.7
2022-08-17T01:35:32.761Z,7.7
2022-08-17T01:36:41.103Z,7.7
2022-08-17T01:37:49.644Z,6.8
2022-08-17T01:38:57.966Z,6.8
2022-08-17T01:40:06.367Z,6.8
2022-08-17T01:41:14.865Z,7.5
2022-08-17T01:42:23.192Z,7.5
2022-08-17T01:43:31.535Z,7.5
2022-08-17T01:44:40.108Z,7.3
2022-08-17T01:45:48.427Z,7.3
2022-08-17T01:46:56.779Z,7.3
2022-08-17T01:48:05.320Z,8.1
2022-08-17T01:49:13.643Z,8.1
2022-08-17T01:50:21.964Z,8.1
2022-08-17T01:51:30.561Z,7.4
2022-08-17T01:52:38.894Z,7.4
2022-08-17T01:53:47.218Z,7.4
2022-08-17T01:54:55.757Z,9.1
2022-08-17T01:56:04.085Z,9.1
2022-08-17T01:57:12.436Z,9.1
2022-08-17T01:58:20.982Z,6.6
2022-08-17T01:59:29.320Z,6.6
2022-08-17T02:00:46.657Z,6.6
2022-08-17T02:01:46.308Z,8.1
2022-08-17T02:02:54.533Z,8.1
2022-08-17T02:04:02.929Z,8.1
2022-08-17T02:05:11.473Z,7.3
2022-08-17T02:06:27.430Z,7.3
2022-08-17T02:07:28.163Z,7.3
2022-08-17T02:08:37.414Z,7.3
2022-08-17T02:09:45.029Z,7.3
2022-08-17T02:10:53.348Z,7.3
2022-08-17T02:12:04.810Z,7.2
2022-08-17T02:13:10.235Z,7.2
2022-08-17T02:14:18.558Z,7.2
2022-08-17T02:15:27.101Z,7.6
2022-08-17T02:16:37.243Z,7.6
2022-08-17T02:17:43.759Z,7.6
2022-08-17T02:18:52.295Z,8.3
2022-08-17T02:20:00.635Z,8.3
2022-08-17T02:21:08.972Z,8.3
2022-08-17T02:22:17.535Z,7.3
2022-08-17T02:23:25.849Z,7.3
2022-08-17T02:24:59.223Z,7.3
2022-08-17T02:25:42.703Z,7.8
2022-08-17T02:26:51.047Z,7.8
2022-08-17T02:27:59.392Z,7.8
2022-08-17T02:29:07.931Z,7
2022-08-17T02:31:00.413Z,7
2022-08-17T02:31:24.617Z,7
2022-08-17T02:32:33.139Z,6.8
2022-08-17T02:33:43.578Z,6.8
2022-08-17T02:34:49.843Z,6.8
2022-08-17T02:35:58.379Z,7.1
2022-08-17T02:37:06.728Z,7.1
2022-08-17T02:38:15.056Z,7.1
2022-08-17T02:39:23.624Z,7.3
2022-08-17T02:40:35.818Z,7.3
2022-08-17T02:41:40.293Z,7.3
2022-08-17T02:42:49.047Z,7.1
2022-08-17T02:43:57.230Z,7.1
2022-08-17T02:45:05.549Z,7.1
2022-08-17T02:46:14.088Z,7.3
2022-08-17T02:47:22.471Z,7.3
2022-08-17T02:48:31.907Z,7.3
2022-08-17T02:49:39.396Z,10
2022-08-17T02:50:47.727Z,10
2022-08-17T02:51:56.055Z,10
2022-08-17T02:53:05.173Z,7.7
2022-08-17T02:54:38.825Z,7.7
2022-08-17T02:55:21.244Z,7.7
2022-08-17T02:56:29.782Z,7.3
2022-08-17T02:57:38.113Z,7.3
2022-08-17T02:58:46.466Z,7.3
2022-08-17T02:59:55.014Z,7.1
2022-08-17T03:01:03.442Z,7.1
2022-08-17T03:02:11.706Z,7.1
2022-08-17T03:03:20.245Z,7.6
2022-08-17T03:04:28.600Z,7.6
2022-08-17T03:05:36.927Z,7.6
2022-08-17T03:06:45.483Z,7
2022-08-17T03:07:53.802Z,7
2022-08-17T03:09:02.126Z,7
2022-08-17T03:10:10.691Z,7.3
2022-08-17T03:11:19.056Z,7.3
2022-08-17T03:12:27.418Z,7.3
2022-08-17T03:13:35.951Z,8
2022-08-17T03:14:44.287Z,8
2022-08-17T03:15:52.641Z,8
2022-08-17T03:17:01.170Z,6.9
2022-08-17T03:18:09.514Z,6.9
2022-08-17T03:19:17.842Z,6.9
2022-08-17T03:20:26.386Z,7
2022-08-17T03:21:34.754Z,7
2022-08-17T03:22:43.087Z,7
2022-08-17T03:23:54.330Z,7.4
2022-08-17T03:24:59.951Z,7.4
2022-08-17T03:26:12.228Z,7.4
2022-08-17T03:27:16.871Z,7.5
2022-08-17T03:28:25.204Z,7.5
2022-08-17T03:29:33.523Z,7.5
2022-08-17T03:30:42.116Z,7.3
2022-08-17T03:31:50.454Z,7.3
2022-08-17T03:32:58.813Z,7.3
2022-08-17T03:34:07.342Z,7.2
2022-08-17T03:35:15.682Z,7.2
2022-08-17T03:36:24.021Z,7.2
2022-08-17T03:37:32.602Z,7.6
2022-08-17T03:38:40.913Z,7.6
2022-08-17T03:39:49.312Z,7.6
2022-08-17T03:40:59.840Z,7.7
2022-08-17T03:42:06.164Z,7.7
2022-08-17T03:43:14.493Z,7.7
2022-08-17T03:44:23.033Z,8.7
2022-08-17T03:45:31.373Z,8.7
2022-08-17T03:46:39.717Z,8.7
2022-08-17T03:47:48.294Z,7.6
2022-08-17T03:48:56.629Z,7.6
2022-08-17T03:50:04.967Z,7.6
2022-08-17T03:51:14.807Z,8.9
2022-08-17T03:52:21.845Z,8.9
2022-08-17T03:53:30.186Z,8.9
2022-08-17T03:54:38.777Z,7.5
2022-08-17T03:55:47.104Z,7.5
2022-08-17T03:56:55.452Z,7.5
2022-08-17T03:58:03.996Z,8.1
2022-08-17T03:59:18.518Z,8.1
2022-08-17T04:00:20.708Z,8.1
2022-08-17T04:01:29.332Z,9.1
2022-08-17T04:02:37.592Z,9.1
2022-08-17T04:03:45.927Z,9.1
2022-08-17T04:04:54.461Z,7.4
2022-08-17T04:06:02.802Z,7.4
2022-08-17T04:07:11.165Z,7.4
2022-08-17T04:08:19.698Z,7.4
2022-08-17T04:09:28.032Z,7.4
2022-08-17T04:10:41.331Z,7.4
2022-08-17T04:11:44.939Z,7.5
2022-08-17T04:12:53.266Z,7.5
2022-08-17T04:14:01.587Z,7.5
2022-08-17T04:15:10.156Z,7.7
2022-08-17T04:16:18.503Z,7.7
2022-08-17T04:17:38.340Z,7.7
2022-08-17T04:18:46.871Z,8.2
2022-08-17T04:19:55.258Z,8.2
2022-08-17T04:21:03.582Z,8.2
2022-08-17T04:22:12.143Z,6.8
2022-08-17T04:23:20.449Z,6.8
2022-08-17T04:24:28.812Z,6.8
2022-08-17T04:25:37.392Z,7.1
2022-08-17T04:26:50.542Z,7.1
2022-08-17T04:27:54.032Z,7.1
2022-08-17T04:29:02.578Z,9
2022-08-17T04:30:10.936Z,9
2022-08-17T04:31:19.277Z,9
2022-08-17T04:32:59.238Z,7.1
2022-08-17T04:33:36.152Z,7.1
2022-08-17T04:34:44.490Z,7.1
2022-08-17T04:35:53.037Z,9.5
2022-08-17T04:37:01.450Z,9.5
2022-08-17T04:38:09.782Z,9.5
2022-08-17T04:39:18.324Z,7.6
2022-08-17T04:40:27.224Z,7.6
2022-08-17T04:41:35.051Z,7.6
2022-08-17T04:42:43.631Z,6.6
2022-08-17T04:43:51.891Z,6.6
2022-08-17T04:45:00.239Z,6.6
2022-08-17T04:46:08.787Z,7.7
2022-08-17T04:47:17.152Z,7.7
2022-08-17T04:48:28.013Z,7.7
2022-08-17T04:49:34.033Z,6.6
2022-08-17T04:50:42.370Z,6.6
2022-08-17T04:51:54.480Z,6.6
2022-08-17T04:52:59.653Z,6.3
2022-08-17T04:54:07.629Z,6.3
2022-08-17T04:55:15.960Z,6.3
2022-08-17T04:56:24.496Z,7.1
2022-08-17T04:57:37.752Z,7.1
2022-08-17T04:58:41.189Z,7.1
2022-08-17T04:59:49.724Z,6.4
2022-08-17T05:00:58.139Z,6.4
2022-08-17T05:02:06.413Z,6.4
2022-08-17T05:03:14.949Z,7.6
2022-08-17T05:04:34.677Z,7.6
2022-08-17T05:05:31.654Z,7.6
2022-08-17T05:06:40.220Z,6.3
2022-08-17T05:07:48.558Z,6.3
2022-08-17T05:08:56.876Z,6.3
2022-08-17T05:10:05.447Z,7.2
2022-08-17T05:11:13.803Z,7.2
2022-08-17T05:12:22.130Z,7.2
2022-08-17T05:13:30.664Z,8.1
2022-08-17T05:14:38.996Z,8.1
2022-08-17T05:15:47.750Z,8.1
2022-08-17T05:16:55.886Z,9.4
2022-08-17T05:18:04.216Z,9.4
2022-08-17T05:19:12.540Z,9.4
2022-08-17T05:20:21.093Z,7.6
2022-08-17T05:21:29.415Z,7.6
2022-08-17T05:22:37.745Z,7.6
2022-08-17T05:23:47.178Z,7.6
2022-08-17T05:24:55.572Z,7.6
2022-08-17T05:26:02.980Z,7.6
2022-08-17T05:27:12.842Z,9.2
2022-08-17T05:28:19.828Z,9.2
2022-08-17T05:29:33.566Z,9.2
2022-08-17T05:30:36.733Z,7.4
2022-08-17T05:31:45.057Z,7.4
2022-08-17T05:32:53.582Z,7.4
2022-08-17T05:34:01.942Z,6.8
2022-08-17T05:35:10.289Z,6.8
2022-08-17T05:36:37.713Z,6.8
2022-08-17T05:37:27.165Z,7.6
2022-08-17T05:38:35.510Z,7.6
2022-08-17T05:39:43.840Z,7.6
2022-08-17T05:40:52.389Z,8.4
2022-08-17T05:42:00.726Z,8.4
2022-08-17T05:43:09.094Z,8.4
2022-08-17T05:44:17.649Z,9.9
2022-08-17T05:45:39.903Z,9.9
2022-08-17T05:46:34.302Z,9.9
2022-08-17T05:47:42.840Z,7.6
2022-08-17T05:48:51.155Z,7.6
2022-08-17T05:49:59.492Z,7.6
2022-08-17T05:51:08.042Z,8.7
2022-08-17T05:52:19.768Z,8.7
2022-08-17T05:53:24.706Z,8.7
2022-08-17T05:54:33.289Z,7.2
2022-08-17T05:55:41.616Z,7.2
2022-08-17T05:56:49.932Z,7.2
2022-08-17T05:57:58.481Z,8.6
2022-08-17T05:59:06.845Z,8.6
2022-08-17T06:00:15.164Z,8.6
2022-08-17T06:01:23.752Z,7.4
2022-08-17T06:02:32.035Z,7.4
2022-08-17T06:03:40.361Z,7.4
2022-08-17T06:04:48.913Z,8.2
2022-08-17T06:05:57.244Z,8.2
2022-08-17T06:07:05.623Z,8.2
2022-08-17T06:08:14.136Z,8.3
2022-08-17T06:09:26.731Z,8.3
2022-08-17T06:10:30.805Z,8.3
2022-08-17T06:11:39.356Z,8.4
2022-08-17T06:12:47.684Z,8.4
2022-08-17T06:13:56.011Z,8.4
2022-08-17T06:15:04.585Z,9.3
2022-08-17T06:16:26.071Z,9.3
2022-08-17T06:17:21.276Z,9.3
2022-08-17T06:18:29.832Z,7.5
2022-08-17T06:19:38.188Z,7.5
2022-08-17T06:20:46.519Z,7.5
2022-08-17T06:21:55.055Z,6.3
2022-08-17T06:23:03.395Z,6.3
2022-08-17T06:24:11.795Z,6.3
2022-08-17T06:25:20.335Z,6.1
2022-08-17T06:26:30.520Z,6.1
2022-08-17T06:27:37.042Z,6.1
2022-08-17T06:28:45.611Z,8.8
2022-08-17T06:29:53.958Z,8.8
2022-08-17T06:31:02.273Z,8.8
2022-08-17T06:32:12.102Z,5.2
2022-08-17T06:33:19.139Z,5.2
2022-08-17T06:34:27.521Z,5.2
2022-08-17T06:35:36.039Z,7.6
2022-08-17T06:36:44.394Z,7.6
2022-08-17T06:37:52.720Z,7.6
2022-08-17T06:39:01.264Z,5.7
2022-08-17T06:40:09.643Z,5.7
2022-08-17T06:41:17.923Z,5.7
2022-08-17T06:42:53.943Z,6.4
2022-08-17T06:43:34.808Z,6.4
2022-08-17T06:44:50.318Z,6.4
2022-08-17T06:45:51.678Z,11.6
2022-08-17T06:47:00.006Z,11.6
2022-08-17T06:48:08.339Z,11.6
2022-08-17T06:49:16.897Z,7.4
2022-08-17T06:50:25.220Z,7.4
2022-08-17T06:51:33.541Z,7.4
2022-08-17T06:52:46.225Z,6.7
2022-08-17T06:53:50.407Z,6.7
2022-08-17T06:54:58.780Z,6.7
2022-08-17T06:56:07.330Z,8.6
2022-08-17T06:57:15.657Z,8.6
2022-08-17T06:58:23.982Z,8.6
2022-08-17T06:59:35.689Z,7.5
2022-08-17T07:00:40.972Z,7.5
2022-08-17T07:01:49.201Z,7.5
2022-08-17T07:02:57.732Z,6.5
2022-08-17T07:04:06.784Z,6.5
2022-08-17T07:05:14.389Z,6.5
2022-08-17T07:06:22.926Z,5.6
2022-08-17T07:07:31.269Z,5.6
2022-08-17T07:08:39.581Z,5.6
2022-08-17T07:09:48.159Z,7.5
2022-08-17T07:10:56.494Z,7.5
2022-08-17T07:12:04.831Z,7.5
2022-08-17T07:13:13.373Z,5.1
2022-08-17T07:14:21.704Z,5.1
2022-08-17T07:15:30.041Z,5.1
2022-08-17T07:16:38.575Z,6.3
2022-08-17T07:17:48.341Z,6.3
2022-08-17T07:18:55.263Z,6.3
2022-08-17T07:20:03.811Z,7.9
2022-08-17T07:21:17.042Z,7.9
2022-08-17T07:22:20.488Z,7.9
2022-08-17T07:23:29.073Z,7.3
2022-08-17T07:24:37.417Z,7.3
2022-08-17T07:25:45.748Z,7.3
2022-08-17T07:26:54.293Z,6.7
2022-08-17T07:28:03.853Z,6.7
2022-08-17T07:29:10.966Z,6.7
2022-08-17T07:30:19.510Z,6.5
2022-08-17T07:31:27.849Z,6.5
2022-08-17T07:32:36.205Z,6.5
2022-08-17T07:33:45.470Z,6.3
2022-08-17T07:34:53.815Z,6.3
2022-08-17T07:36:02.143Z,6.3
2022-08-17T07:37:10.686Z,7.7
2022-08-17T07:38:24.495Z,7.7
2022-08-17T07:39:27.466Z,7.7
2022-08-17T07:40:36.024Z,5.9
2022-08-17T07:41:53.687Z,5.9
2022-08-17T07:42:52.650Z,5.9
2022-08-17T07:44:01.184Z,5.2
2022-08-17T07:45:09.542Z,5.2
2022-08-17T07:46:17.850Z,5.2
2022-08-17T07:47:26.549Z,6.2
2022-08-17T07:48:34.858Z,6.2
2022-08-17T07:49:43.209Z,6.2
2022-08-17T07:50:51.748Z,5.8
2022-08-17T07:52:13.487Z,5.8
2022-08-17T07:53:08.438Z,5.8
2022-08-17T07:54:17.020Z,6.8
2022-08-17T07:55:25.350Z,6.8
2022-08-17T07:56:34.456Z,6.8
2022-08-17T07:57:42.221Z,4.4
2022-08-17T07:58:50.553Z,4.4
2022-08-17T07:59:58.873Z,4.4
2022-08-17T08:01:07.437Z,7.5
2022-08-17T08:02:15.869Z,7.5
2022-08-17T08:03:24.655Z,7.5
2022-08-17T08:05:02.443Z,6
2022-08-17T08:05:49.644Z,6
2022-08-17T08:06:49.305Z,6
2022-08-17T08:07:57.862Z,5
2022-08-17T08:09:06.189Z,5
2022-08-17T08:10:14.524Z,5
2022-08-17T08:11:23.039Z,5.8
2022-08-17T08:12:33.588Z,5.8
2022-08-17T08:13:39.729Z,5.8
2022-08-17T08:14:48.249Z,4.6
2022-08-17T08:15:56.581Z,4.6
2022-08-17T08:17:04.926Z,4.6
2022-08-17T08:18:13.493Z,5.2
2022-08-17T08:19:21.814Z,5.2
2022-08-17T08:20:34.883Z,5.2
2022-08-17T08:21:38.673Z,12.3
2022-08-17T08:22:46.997Z,12.3
2022-08-17T08:23:55.323Z,12.3
2022-08-17T08:25:03.886Z,9.3
2022-08-17T08:26:15.239Z,9.3
2022-08-17T08:27:20.559Z,9.3
2022-08-17T08:28:29.099Z,11.5
2022-08-17T08:29:37.433Z,11.5
2022-08-17T08:30:45.770Z,11.5
2022-08-17T08:31:54.335Z,5.3
2022-08-17T08:33:02.633Z,5.3
2022-08-17T08:34:44.838Z,5.3
2022-08-17T08:35:19.514Z,5.3
2022-08-17T08:36:56.584Z,5.3
2022-08-17T08:37:40.611Z,5.3
2022-08-17T08:38:44.706Z,6.6
2022-08-17T08:39:53.087Z,6.6
2022-08-17T08:41:01.355Z,6.6
2022-08-17T08:42:09.910Z,14.8
2022-08-17T08:43:18.237Z,14.8
2022-08-17T08:44:59.115Z,14.8
2022-08-17T08:45:35.149Z,4.8
2022-08-17T08:46:43.487Z,4.8
2022-08-17T08:47:51.983Z,4.8
2022-08-17T08:49:03.795Z,5.1
2022-08-17T08:50:08.702Z,5.1
2022-08-17T08:51:17.030Z,5.1
2022-08-17T08:52:25.570Z,7.8
2022-08-17T08:53:33.908Z,7.8
2022-08-17T08:54:42.227Z,7.8
2022-08-17T08:55:50.769Z,5
2022-08-17T08:57:23.053Z,5
2022-08-17T08:58:07.442Z,5
2022-08-17T08:59:15.961Z,4.1
2022-08-17T09:00:24.298Z,4.1
2022-08-17T09:01:32.662Z,4.1
2022-08-17T09:02:41.168Z,4.3
2022-08-17T09:03:53.028Z,4.3
2022-08-17T09:05:13.695Z,4.3
2022-08-17T09:06:06.352Z,5
2022-08-17T09:07:14.684Z,5
2022-08-17T09:08:23.005Z,5
2022-08-17T09:09:31.548Z,3.9
2022-08-17T09:10:39.887Z,3.9
2022-08-17T09:12:01.003Z,3.9
2022-08-17T09:12:56.753Z,4.1
2022-08-17T09:14:05.074Z,4.1
2022-08-17T09:15:13.421Z,4.1
2022-08-17T09:16:21.954Z,4.5
2022-08-17T09:17:30.278Z,4.5
2022-08-17T09:18:59.545Z,4.5
2022-08-17T09:19:47.127Z,4.6
2022-08-17T09:20:55.493Z,4.6
2022-08-17T09:22:03.810Z,4.6
2022-08-17T09:23:12.343Z,5.9
2022-08-17T09:24:20.993Z,5.9
2022-08-17T09:25:29.037Z,5.9
2022-08-17T09:26:37.555Z,5.7
2022-08-17T09:27:45.908Z,5.7
2022-08-17T09:28:54.203Z,5.7
2022-08-17T09:30:02.736Z,6.1
2022-08-17T09:31:11.073Z,6.1
2022-08-17T09:32:19.488Z,6.1
2022-08-17T09:33:27.929Z,15.1
2022-08-17T09:34:36.242Z,15.1
2022-08-17T09:35:44.601Z,15.1
2022-08-17T09:36:53.131Z,6.4
2022-08-17T09:38:01.452Z,6.4
2022-08-17T09:39:09.776Z,6.4
2022-08-17T09:40:18.466Z,5.1
2022-08-17T09:41:26.655Z,5.1
2022-08-17T09:42:34.973Z,5.1
2022-08-17T09:43:43.495Z,5.1
2022-08-17T09:44:51.824Z,5.1
2022-08-17T09:46:00.159Z,5.1
2022-08-17T09:47:08.685Z,14.6
2022-08-17T09:48:18.137Z,14.6
2022-08-17T09:49:25.472Z,14.6
2022-08-17T09:50:55.853Z,7.8
2022-08-17T09:51:42.206Z,7.8
2022-08-17T09:52:50.531Z,7.8
2022-08-17T09:54:15.072Z,4.9
2022-08-17T09:55:07.574Z,4.9
2022-08-17T09:56:15.958Z,4.9
2022-08-17T09:57:32.431Z,4.7
2022-08-17T09:58:32.813Z,4.7
2022-08-17T09:59:41.155Z,4.7
2022-08-17T10:00:49.756Z,5.1
2022-08-17T10:01:58.006Z,5.1
2022-08-17T10:03:06.348Z,5.1
2022-08-17T10:04:16.872Z,3.9
2022-08-17T10:05:23.218Z,3.9
2022-08-17T10:06:31.581Z,3.9
2022-08-17T10:07:40.133Z,9.2
2022-08-17T10:08:48.433Z,9.2
2022-08-17T10:09:56.777Z,9.2
2022-08-17T10:11:05.314Z,4.1
2022-08-17T10:12:13.628Z,4.1
2022-08-17T10:13:21.957Z,4.1
2022-08-17T10:14:37.115Z,3.7
2022-08-17T10:15:40.154Z,3.7
2022-08-17T10:16:47.149Z,3.7
2022-08-17T10:17:55.879Z,4
2022-08-17T10:19:04.164Z,4
2022-08-17T10:20:12.503Z,4
2022-08-17T10:21:21.025Z,5.2
2022-08-17T10:22:32.897Z,5.2
2022-08-17T10:23:37.678Z,5.2
2022-08-17T10:25:02.222Z,4.7
2022-08-17T10:25:55.613Z,4.7
2022-08-17T10:27:02.876Z,4.7
2022-08-17T10:28:15.773Z,3
2022-08-17T10:29:19.732Z,3
2022-08-17T10:30:28.077Z,3
2022-08-17T10:31:36.605Z,5.8
2022-08-17T10:32:44.927Z,5.8
2022-08-17T10:33:53.282Z,5.8
2022-08-17T10:35:01.813Z,3.2
2022-08-17T10:36:10.842Z,3.2
2022-08-17T10:37:18.485Z,3.2
2022-08-17T10:38:27.014Z,4.6
2022-08-17T10:39:35.411Z,4.6
2022-08-17T10:40:43.702Z,4.6
2022-08-17T10:41:52.239Z,4.9
2022-08-17T10:43:00.583Z,4.9
2022-08-17T10:44:37.818Z,4.9
2022-08-17T10:45:17.453Z,3.2
2022-08-17T10:46:30.781Z,3.2
2022-08-17T10:47:47.215Z,3.2
2022-08-17T10:48:42.670Z,3.1
2022-08-17T10:49:51.012Z,3.1
2022-08-17T10:50:59.584Z,3.1
2022-08-17T10:52:08.025Z,11.4
2022-08-17T10:53:19.829Z,11.4
2022-08-17T10:54:24.698Z,11.4
2022-08-17T10:55:33.220Z,5.1
2022-08-17T10:56:41.565Z,5.1
2022-08-17T10:57:50.165Z,5.1
2022-08-17T10:58:58.450Z,4.3
2022-08-17T11:00:06.776Z,4.3
2022-08-17T11:01:15.229Z,4.3
2022-08-17T11:02:23.641Z,4
2022-08-17T11:03:31.995Z,4
2022-08-17T11:04:40.302Z,4
2022-08-17T11:05:48.844Z,3.9
2022-08-17T11:06:57.171Z,3.9
2022-08-17T11:08:05.542Z,3.9
2022-08-17T11:09:14.071Z,4.5
2022-08-17T11:10:22.399Z,4.5
2022-08-17T11:11:30.735Z,4.5
2022-08-17T11:12:39.260Z,3.7
2022-08-17T11:13:47.590Z,3.7
2022-08-17T11:14:55.934Z,3.7
2022-08-17T11:16:08.183Z,3.3
2022-08-17T11:17:12.802Z,3.3
2022-08-17T11:18:21.149Z,3.3
2022-08-17T11:19:29.694Z,3.5
2022-08-17T11:20:38.030Z,3.5
2022-08-17T11:21:46.372Z,3.5
2022-08-17T11:22:54.906Z,20.299999
2022-08-17T11:24:03.241Z,20.299999
2022-08-17T11:25:11.602Z,20.299999
2022-08-17T11:26:20.116Z,4.2
2022-08-17T11:27:28.482Z,4.2
2022-08-17T11:28:36.810Z,4.2
2022-08-17T11:29:47.444Z,5.3
2022-08-17T11:30:53.701Z,5.3
2022-08-17T11:32:02.024Z,5.3
2022-08-17T11:33:10.570Z,5.1
2022-08-17T11:34:18.921Z,5.1
2022-08-17T11:35:27.293Z,5.1
2022-08-17T11:36:35.831Z,4.5
2022-08-17T11:37:44.237Z,4.5
2022-08-17T11:38:52.566Z,4.5
2022-08-17T11:40:01.230Z,5.6
2022-08-17T11:41:09.496Z,5.6
2022-08-17T11:42:17.878Z,5.6
2022-08-17T11:43:26.403Z,5.2
2022-08-17T11:44:34.736Z,5.2
2022-08-17T11:45:43.063Z,5.2
2022-08-17T11:46:51.667Z,3.4
2022-08-17T11:48:24.131Z,3.4
2022-08-17T11:49:08.292Z,3.4
2022-08-17T11:50:16.830Z,3.6
2022-08-17T11:51:25.182Z,3.6
2022-08-17T11:52:33.517Z,3.6
2022-08-17T11:53:42.100Z,5.2
2022-08-17T11:54:50.432Z,5.2
2022-08-17T11:55:58.775Z,5.2
2022-08-17T11:57:07.305Z,4.6
2022-08-17T11:58:15.658Z,4.6
2022-08-17T11:59:24.026Z,4.6
2022-08-17T12:00:32.592Z,3.3
2022-08-17T12:01:40.976Z,3.3
2022-08-17T12:02:49.305Z,3.3
2022-08-17T12:03:57.857Z,4.7
2022-08-17T12:05:11.889Z,4.7
2022-08-17T12:06:14.582Z,4.7
2022-08-17T12:07:23.153Z,4.6
2022-08-17T12:08:31.486Z,4.6
2022-08-17T12:09:39.834Z,4.6
2022-08-17T12:10:48.435Z,3.6
2022-08-17T12:12:12.280Z,3.6
2022-08-17T12:13:05.135Z,3.6
2022-08-17T12:14:17.820Z,5.5
2022-08-17T12:15:22.044Z,5.5
2022-08-17T12:16:30.375Z,5.5
2022-08-17T12:17:40.047Z,7.5
2022-08-17T12:18:47.258Z,7.5
2022-08-17T12:19:55.589Z,7.5
2022-08-17T12:21:04.127Z,5.6
2022-08-17T12:22:12.467Z,5.6
2022-08-17T12:23:20.791Z,5.6
2022-08-17T12:24:29.333Z,4.1
2022-08-17T12:25:37.671Z,4.1
2022-08-17T12:26:46.020Z,4.1
2022-08-17T12:28:05.736Z,3.1
2022-08-17T12:29:02.964Z,3.1
2022-08-17T12:30:11.297Z,3.1
2022-08-17T12:31:19.840Z,7.4
2022-08-17T12:32:28.188Z,7.4
2022-08-17T12:33:36.514Z,7.4
2022-08-17T12:34:45.054Z,7.3
2022-08-17T12:35:57.503Z,7.3
2022-08-17T12:37:01.746Z,7.3
2022-08-17T12:38:27.005Z,3.3
2022-08-17T12:39:21.257Z,3.3
2022-08-17T12:40:26.957Z,3.3
2022-08-17T12:41:35.581Z,4.9
2022-08-17T12:42:43.938Z,4.9
2022-08-17T12:43:52.259Z,4.9
2022-08-17T12:45:00.786Z,5.3
2022-08-17T12:46:13.191Z,5.3
2022-08-17T12:47:21.781Z,5.3
2022-08-17T12:48:25.978Z,7
2022-08-17T12:49:34.320Z,7
2022-08-17T12:50:42.658Z,7
2022-08-17T12:51:51.311Z,4.3
2022-08-17T12:53:02.178Z,4.3
2022-08-17T12:54:13.716Z,4.3
2022-08-17T12:55:26.555Z,5
2022-08-17T12:56:34.905Z,5
2022-08-17T12:57:43.360Z,5
2022-08-17T12:59:02.339Z,4.6
2022-08-17T13:00:11.688Z,4.6
2022-08-17T13:01:20.135Z,4.6
2022-08-17T13:02:28.639Z,4.1
2022-08-17T13:03:36.985Z,4.1
2022-08-17T13:04:45.308Z,4.1
2022-08-17T13:05:53.844Z,4.1
2022-08-17T13:07:02.182Z,4.1
2022-08-17T13:08:10.529Z,4.1
2022-08-17T13:09:19.064Z,4.3
2022-08-17T13:10:31.768Z,4.3
2022-08-17T13:11:35.744Z,4.3
2022-08-17T13:12:44.346Z,7.1
2022-08-17T13:13:52.717Z,7.1
2022-08-17T13:15:01.062Z,7.1
2022-08-17T13:16:09.609Z,5
2022-08-17T13:17:18.053Z,5
2022-08-17T13:18:26.398Z,5
2022-08-17T13:19:40.196Z,2.8
2022-08-17T13:20:43.330Z,2.8
2022-08-17T13:21:51.710Z,2.8
2022-08-17T13:23:00.255Z,2.8
2022-08-17T13:24:08.599Z,2.8
2022-08-17T13:25:16.932Z,2.8
2022-08-17T13:26:25.503Z,4.7
2022-08-17T13:27:33.830Z,4.7
2022-08-17T13:28:42.229Z,4.7
2022-08-17T13:29:51.130Z,4.3
2022-08-17T13:30:59.127Z,4.3
2022-08-17T13:32:11.595Z,4.3
2022-08-17T13:33:15.984Z,3.3
2022-08-17T13:34:24.313Z,3.3
2022-08-17T13:35:36.477Z,3.3
2022-08-17T13:36:41.219Z,3.3
2022-08-17T13:37:49.664Z,3.3
2022-08-17T13:38:57.856Z,3.3
2022-08-17T13:40:06.479Z,4.8
2022-08-17T13:41:14.771Z,4.8
2022-08-17T13:42:23.128Z,4.8
2022-08-17T13:43:31.799Z,3.1
2022-08-17T13:44:55.550Z,3.1
2022-08-17T13:46:03.888Z,3.1
2022-08-17T13:47:12.427Z,2.9
2022-08-17T13:48:20.768Z,2.9
2022-08-17T13:49:41.765Z,2.9
2022-08-17T13:50:37.647Z,3.6
2022-08-17T13:51:46.012Z,3.6
2022-08-17T13:52:54.334Z,3.6
2022-08-17T13:54:02.872Z,4.6
2022-08-17T13:55:11.196Z,4.6
2022-08-17T13:56:33.259Z,4.6
2022-08-17T13:57:28.098Z,2.9
2022-08-17T13:58:36.442Z,2.9
2022-08-17T13:59:52.822Z,2.9
2022-08-17T14:00:53.310Z,3.9
2022-08-17T14:02:01.731Z,3.9
2022-08-17T14:03:09.984Z,3.9
2022-08-17T14:04:18.535Z,2.9
2022-08-17T14:05:26.874Z,2.9
2022-08-17T14:06:51.645Z,2.9
2022-08-17T14:07:43.800Z,6.5
2022-08-17T14:08:52.113Z,6.5
2022-08-17T14:10:00.434Z,6.5
2022-08-17T14:11:08.981Z,2.9
2022-08-17T14:12:17.322Z,2.9
2022-08-17T14:13:25.656Z,2.9
2022-08-17T14:14:34.194Z,3.7
2022-08-17T14:15:53.897Z,3.7
2022-08-17T14:16:50.898Z,3.7
2022-08-17T14:17:59.464Z,5
2022-08-17T14:19:07.789Z,5
2022-08-17T14:20:16.120Z,5
2022-08-17T14:21:24.660Z,6.3
2022-08-17T14:22:32.986Z,6.3
2022-08-17T14:23:41.291Z,6.3
2022-08-17T14:24:49.838Z,5.8
2022-08-17T14:25:58.183Z,5.8
2022-08-17T14:27:06.654Z,5.8
2022-08-17T14:28:15.195Z,3.9
2022-08-17T14:29:23.530Z,3.9
2022-08-17T15:04:07.636Z,0
2022-08-17T15:05:15.988Z,0
2022-08-17T15:06:24.310Z,0
2022-08-17T15:07:32.857Z,6.5
2022-08-17T15:08:41.194Z,6.5
2022-08-17T15:09:49.523Z,6.5
2022-08-17T15:10:58.091Z,4.5
2022-08-17T15:12:06.410Z,4.5
2022-08-17T15:13:14.743Z,4.5
2022-08-17T15:14:23.273Z,5.9
2022-08-17T15:15:31.613Z,5.9
2022-08-17T15:16:39.945Z,5.9
2022-08-17T15:17:48.502Z,3.8
2022-08-17T15:18:56.830Z,3.8
2022-08-17T15:20:05.157Z,3.8
2022-08-17T15:21:13.716Z,6.4
2022-08-17T15:22:22.058Z,6.4
2022-08-17T15:23:30.376Z,6.4
2022-08-17T15:24:38.916Z,14.2
2022-08-17T15:25:47.269Z,14.2
2022-08-17T15:26:55.602Z,14.2
2022-08-17T15:28:04.146Z,5.7
2022-08-17T15:29:12.482Z,5.7
2022-08-17T15:30:20.812Z,5.7
2022-08-17T15:31:29.847Z,7.5
2022-08-17T15:32:37.692Z,7.5
2022-08-17T15:33:46.027Z,7.5
2022-08-17T15:34:54.558Z,4.4
2022-08-17T15:36:02.911Z,4.4
2022-08-17T15:37:11.230Z,4.4
2022-08-17T15:38:19.783Z,4.6
2022-08-17T15:39:28.173Z,4.6
2022-08-17T15:40:36.720Z,4.6
2022-08-17T15:41:44.991Z,4.9
2022-08-17T15:42:53.325Z,4.9
2022-08-17T15:44:01.640Z,4.9
2022-08-17T15:45:10.182Z,3.5
2022-08-17T15:46:18.539Z,3.5
2022-08-17T15:47:26.857Z,3.5
2022-08-17T15:48:35.396Z,5.6
2022-08-17T15:49:43.726Z,5.6
2022-08-17T15:50:52.064Z,5.6
2022-08-17T15:52:00.606Z,4.2
2022-08-17T15:53:08.939Z,4.2
2022-08-17T15:54:19.480Z,4.2
2022-08-17T15:55:25.811Z,3.5
2022-08-17T15:56:34.135Z,3.5
2022-08-17T15:57:42.464Z,3.5
2022-08-17T15:58:51.006Z,5.1
2022-08-17T15:59:59.396Z,5.1
2022-08-17T16:01:14.552Z,5.1
2022-08-17T16:02:59.368Z,5.6
2022-08-17T16:03:47.224Z,5.6
2022-08-17T16:04:32.998Z,5.6
2022-08-17T16:05:41.623Z,3.4
2022-08-17T16:06:49.920Z,3.4
2022-08-17T16:07:58.205Z,3.4
2022-08-17T16:09:06.752Z,3.5
2022-08-17T16:10:18.762Z,3.5
2022-08-17T16:11:23.431Z,3.5
2022-08-17T16:12:31.974Z,4.1
2022-08-17T16:13:40.306Z,4.1
2022-08-17T16:14:48.628Z,4.1
2022-08-17T16:15:57.642Z,4.4
2022-08-17T16:17:05.517Z,4.4
2022-08-17T16:18:13.853Z,4.4
2022-08-17T16:19:22.395Z,3.9